This is the latest recevied weather packets stored in our database for station/object 9W2CEW-1. If no packets are shown the sender has not sent any weather packets the latest 10 day(s).
| Time | Temp. | Humidity | Pressure | Rain* | Wind** | Luminosity | Snow |
|---|---|---|---|---|---|---|---|
| 1777988052 | 34.44° C | 61% | 1002.3 hPa | - | - | - | - |
| 1777987152 | 33.89° C | 62% | 1002.2 hPa | - | - | - | - |
| 1777986252 | 34.44° C | 59% | 1002.2 hPa | - | - | - | - |
| 1777985353 | 34.44° C | 59% | 1002.1 hPa | - | - | - | - |
| 1777984501 | 32.78° C | 64% | 1002.2 hPa | - | - | - | - |
| 1777984451 | 32.78° C | 64% | 1002.2 hPa | - | - | - | - |
| 1777983551 | 33.33° C | 62% | 1002 hPa | - | - | - | - |
| 1777982658 | 33.89° C | 62% | 1001.9 hPa | - | - | - | - |
| 1777981751 | 33.33° C | 64% | 1001.7 hPa | - | - | - | - |
| 1777981191 | 33.33° C | 64% | 1001.5 hPa | - | - | - | - |
| 1777980916 | 33.33° C | 64% | 1001.4 hPa | - | - | - | - |
| 1777980851 | 33.33° C | 64% | 1001.5 hPa | - | - | - | - |
| 1777980522 | 34.44° C | 63% | 1001.3 hPa | - | - | - | - |
| 1777980025 | 35° C | 60% | 1001.1 hPa | - | - | - | - |
| 1777979951 | 33.33° C | 64% | 1001.4 hPa | - | - | - | - |
| 1777979263 | 33.89° C | 62% | 1000.9 hPa | - | - | - | - |
| 1777979051 | 34.44° C | 63% | 1001.3 hPa | - | - | - | - |
| 1777978151 | 35° C | 60% | 1001.1 hPa | - | - | - | - |
| 1777977251 | 33.89° C | 62% | 1000.9 hPa | - | - | - | - |
| 1777976351 | 34.44° C | 62% | 1000.6 hPa | - | - | - | - |
| 1777975450 | 34.44° C | 60% | 1000.7 hPa | - | - | - | - |
| 1777974739 | 33.33° C | 64% | 1000.8 hPa | - | - | - | - |
| 1777974551 | 33.33° C | 64% | 1000.8 hPa | - | - | - | - |
| 1777973660 | 32.78° C | 66% | 1000.7 hPa | - | - | - | - |
| 1777972750 | 31.67° C | 72% | 1000.6 hPa | - | - | - | - |
* Rain since midnight (hover to see other rain measurements)
** Current wind speed in m/s (hover to see current wind gust speed)